Monroe, WA (98272)

12:39 PM PST on February 13, 2016 (GMT -0800)
Remington Heights | | Change Station
CLOSE
Current Station
Personal Weather Station
Location: Monroe, WA
Elevation: 243 ft
Nearby Weather Stations

Elev 243 ft 47.86 °N, 121.94 °W | Updated 23 seconds ago

Rain
Rain
49.8 °F
Feels Like 50 °F
N
0.0
Wind Variable Wind from NE

Today
High -- | Low -- °F
--% Chance of Precip.
Yesterday
High -- | Low -- °F
Precip. -- in
Pressure 30.18 in
Visibility 7.0 miles
Clouds Mostly Cloudy 2600 ft
Overcast 3300 ft
Windchill 50 °F
Dew Point 44 °F
Humidity 81%
Rainfall 0.04 in
Snow Depth Not available.
7:17 AM 5:26 PM
Waxing Crescent, 34% visible
SPECI KPAE 132033Z 17012KT 7SM -RA BKN026 OVC033 08/04 A3018 RMK AO2 RAB27 P0000 T00830039
Pressure 30.18 in
Visibility 7.0 miles
Clouds Mostly Cloudy 2600 ft
Overcast 3300 ft
Windchill 50 °F
Dew Point 44 °F
Humidity 81%
Rainfall 0.04 in
Snow Depth Not available.
7:17 AM 5:26 PM
Waxing Crescent, 34% visible
SPECI KPAE 132033Z 17012KT 7SM -RA BKN026 OVC033 08/04 A3018 RMK AO2 RAB27 P0000 T00830039

10-Day Weather Forecast

Almanac

Astronomy

Feb. 13, 2016 Rise Set
Actual Time
Civil Twilight
Nautical Twilight
Astronomical Twilight
Moon
Length of Visible Light
Length of Day
Tomorrow will be .
, % of the Moon is Illuminated

Today's Extremes

State Highs State Lows

Community

WunderPhotos

Upload Photos

1,892,664 photos uploaded!

WunderBlog® & News

Nearby

Air Quality

  Air Quality AQ Index Pollutant
Not available.

Snow Depth

Station Depth Elevation

Earthquake Activity

City Distance Mag. Time & Date
Minimum magnitude displayed is 2.5.

Coastal Water Temperatures

Place Temperature

Stations

Nearby Weather Stations

Station Location Temp. Windchill Dew Point Humidity Wind Precip. Elev Updated Type
                   

Watches & Warnings

There are currently no watches in effect.